sensor_id;sensor_type;location;lat;lon;timestamp;temperature;humidity
49861;DHT22;35761;48.826;9.238;2022-09-12T00:01:24;16.30;49.20
49861;DHT22;35761;48.826;9.238;2022-09-12T00:03:54;16.30;49.10
49861;DHT22;35761;48.826;9.238;2022-09-12T00:06:27;16.20;49.00
49861;DHT22;35761;48.826;9.238;2022-09-12T00:08:58;16.20;49.10
49861;DHT22;35761;48.826;9.238;2022-09-12T00:11:28;16.10;48.90
49861;DHT22;35761;48.826;9.238;2022-09-12T00:13:57;16.10;48.80
49861;DHT22;35761;48.826;9.238;2022-09-12T00:16:30;16.00;48.50
49861;DHT22;35761;48.826;9.238;2022-09-12T00:18:59;16.00;48.50
49861;DHT22;35761;48.826;9.238;2022-09-12T00:21:28;16.00;48.70
49861;DHT22;35761;48.826;9.238;2022-09-12T00:23:56;16.00;49.00
49861;DHT22;35761;48.826;9.238;2022-09-12T00:26:25;15.90;49.30
49861;DHT22;35761;48.826;9.238;2022-09-12T00:28:53;15.90;49.80
49861;DHT22;35761;48.826;9.238;2022-09-12T00:31:23;15.90;51.20
49861;DHT22;35761;48.826;9.238;2022-09-12T00:33:55;15.90;51.00
49861;DHT22;35761;48.826;9.238;2022-09-12T00:36:27;15.80;51.60
49861;DHT22;35761;48.826;9.238;2022-09-12T00:38:57;15.80;51.80
49861;DHT22;35761;48.826;9.238;2022-09-12T00:41:27;15.70;52.20
49861;DHT22;35761;48.826;9.238;2022-09-12T00:43:58;15.70;52.40
49861;DHT22;35761;48.826;9.238;2022-09-12T00:46:31;15.60;52.60
49861;DHT22;35761;48.826;9.238;2022-09-12T00:49:06;15.60;52.80
49861;DHT22;35761;48.826;9.238;2022-09-12T00:51:41;15.60;53.40
49861;DHT22;35761;48.826;9.238;2022-09-12T00:54:17;15.50;53.80
49861;DHT22;35761;48.826;9.238;2022-09-12T00:56:50;15.40;53.80
49861;DHT22;35761;48.826;9.238;2022-09-12T00:59:25;15.40;54.40
49861;DHT22;35761;48.826;9.238;2022-09-12T01:01:56;15.40;54.60
49861;DHT22;35761;48.826;9.238;2022-09-12T01:04:27;15.30;54.40
49861;DHT22;35761;48.826;9.238;2022-09-12T01:06:57;15.30;54.60
49861;DHT22;35761;48.826;9.238;2022-09-12T01:09:25;15.30;55.00
49861;DHT22;35761;48.826;9.238;2022-09-12T01:11:54;15.20;55.30
49861;DHT22;35761;48.826;9.238;2022-09-12T01:14:23;15.10;55.60
49861;DHT22;35761;48.826;9.238;2022-09-12T01:16:51;15.10;55.90
49861;DHT22;35761;48.826;9.238;2022-09-12T01:19:40;14.90;56.30
49861;DHT22;35761;48.826;9.238;2022-09-12T01:25:40;14.90;56.90
49861;DHT22;35761;48.826;9.238;2022-09-12T01:28:25;14.90;57.00
49861;DHT22;35761;48.826;9.238;2022-09-12T01:31:10;14.90;56.80
49861;DHT22;35761;48.826;9.238;2022-09-12T01:34:00;14.90;57.00
49861;DHT22;35761;48.826;9.238;2022-09-12T01:36:43;14.90;57.00
49861;DHT22;35761;48.826;9.238;2022-09-12T01:39:27;14.90;56.80
49861;DHT22;35761;48.826;9.238;2022-09-12T01:42:04;14.90;56.80
49861;DHT22;35761;48.826;9.238;2022-09-12T01:44:41;14.90;56.60
49861;DHT22;35761;48.826;9.238;2022-09-12T01:47:20;14.80;56.60
49861;DHT22;35761;48.826;9.238;2022-09-12T01:49:56;14.80;56.40
49861;DHT22;35761;48.826;9.238;2022-09-12T01:52:30;14.80;56.70
49861;DHT22;35761;48.826;9.238;2022-09-12T01:55:06;14.80;56.80
49861;DHT22;35761;48.826;9.238;2022-09-12T01:57:45;14.80;56.80
49861;DHT22;35761;48.826;9.238;2022-09-12T02:00:16;14.70;56.80
49861;DHT22;35761;48.826;9.238;2022-09-12T02:02:50;14.70;56.60
49861;DHT22;35761;48.826;9.238;2022-09-12T02:05:24;14.70;56.60
49861;DHT22;35761;48.826;9.238;2022-09-12T02:08:00;14.70;56.60
49861;DHT22;35761;48.826;9.238;2022-09-12T02:10:33;14.70;56.90
49861;DHT22;35761;48.826;9.238;2022-09-12T02:13:07;14.70;56.80
49861;DHT22;35761;48.826;9.238;2022-09-12T02:15:42;14.70;57.10
49861;DHT22;35761;48.826;9.238;2022-09-12T02:18:17;14.70;57.10
49861;DHT22;35761;48.826;9.238;2022-09-12T02:20:47;14.60;57.40
49861;DHT22;35761;48.826;9.238;2022-09-12T02:23:19;14.60;57.60
49861;DHT22;35761;48.826;9.238;2022-09-12T02:25:52;14.60;57.50
49861;DHT22;35761;48.826;9.238;2022-09-12T02:28:24;14.60;57.50
49861;DHT22;35761;48.826;9.238;2022-09-12T02:31:00;14.60;57.40
49861;DHT22;35761;48.826;9.238;2022-09-12T02:33:44;14.50;57.10
49861;DHT22;35761;48.826;9.238;2022-09-12T02:36:24;14.50;57.00
49861;DHT22;35761;48.826;9.238;2022-09-12T02:38:58;14.50;57.10
49861;DHT22;35761;48.826;9.238;2022-09-12T02:41:27;14.40;56.80
49861;DHT22;35761;48.826;9.238;2022-09-12T02:43:56;14.40;56.70
49861;DHT22;35761;48.826;9.238;2022-09-12T02:46:30;14.40;56.40
49861;DHT22;35761;48.826;9.238;2022-09-12T02:49:02;14.30;56.20
49861;DHT22;35761;48.826;9.238;2022-09-12T02:51:30;14.30;56.30
49861;DHT22;35761;48.826;9.238;2022-09-12T02:53:58;14.30;56.40
49861;DHT22;35761;48.826;9.238;2022-09-12T02:56:29;14.20;56.50
49861;DHT22;35761;48.826;9.238;2022-09-12T02:59:00;14.20;56.30
49861;DHT22;35761;48.826;9.238;2022-09-12T03:01:42;14.20;56.50
49861;DHT22;35761;48.826;9.238;2022-09-12T03:04:58;14.20;56.70
49861;DHT22;35761;48.826;9.238;2022-09-12T03:07:36;14.20;57.40
49861;DHT22;35761;48.826;9.238;2022-09-12T03:10:21;14.10;57.90
49861;DHT22;35761;48.826;9.238;2022-09-12T03:12:58;14.10;58.40
49861;DHT22;35761;48.826;9.238;2022-09-12T03:15:40;14.10;58.50
49861;DHT22;35761;48.826;9.238;2022-09-12T03:18:28;14.00;58.60
49861;DHT22;35761;48.826;9.238;2022-09-12T03:21:10;14.00;58.70
49861;DHT22;35761;48.826;9.238;2022-09-12T03:23:45;14.00;58.90
49861;DHT22;35761;48.826;9.238;2022-09-12T03:26:22;13.90;59.10
49861;DHT22;35761;48.826;9.238;2022-09-12T03:28:55;13.90;59.10
49861;DHT22;35761;48.826;9.238;2022-09-12T03:31:25;13.90;59.70
49861;DHT22;35761;48.826;9.238;2022-09-12T03:33:53;13.80;60.10
49861;DHT22;35761;48.826;9.238;2022-09-12T03:36:25;13.80;60.30
49861;DHT22;35761;48.826;9.238;2022-09-12T03:38:54;13.70;60.70
49861;DHT22;35761;48.826;9.238;2022-09-12T03:41:23;13.60;61.20
49861;DHT22;35761;48.826;9.238;2022-09-12T03:43:51;13.60;61.60
49861;DHT22;35761;48.826;9.238;2022-09-12T03:46:19;13.50;61.90
49861;DHT22;35761;48.826;9.238;2022-09-12T03:48:47;13.50;62.50
49861;DHT22;35761;48.826;9.238;2022-09-12T03:51:16;13.40;62.50
49861;DHT22;35761;48.826;9.238;2022-09-12T03:53:46;13.40;62.70
49861;DHT22;35761;48.826;9.238;2022-09-12T03:56:14;13.40;62.80
49861;DHT22;35761;48.826;9.238;2022-09-12T03:58:44;13.40;62.70
49861;DHT22;35761;48.826;9.238;2022-09-12T04:01:15;13.40;62.70
49861;DHT22;35761;48.826;9.238;2022-09-12T04:03:49;13.40;62.70
49861;DHT22;35761;48.826;9.238;2022-09-12T04:06:20;13.40;62.80
49861;DHT22;35761;48.826;9.238;2022-09-12T04:08:55;13.40;62.70
49861;DHT22;35761;48.826;9.238;2022-09-12T04:11:24;13.40;62.80
49861;DHT22;35761;48.826;9.238;2022-09-12T04:13:53;13.40;62.70
49861;DHT22;35761;48.826;9.238;2022-09-12T04:16:21;13.40;62.70
49861;DHT22;35761;48.826;9.238;2022-09-12T04:21:55;13.40;62.50
49861;DHT22;35761;48.826;9.238;2022-09-12T04:24:28;13.30;62.10
49861;DHT22;35761;48.826;9.238;2022-09-12T04:26:56;13.30;62.00
49861;DHT22;35761;48.826;9.238;2022-09-12T04:29:25;13.30;62.00
49861;DHT22;35761;48.826;9.238;2022-09-12T04:31:53;13.30;61.60
49861;DHT22;35761;48.826;9.238;2022-09-12T04:34:21;13.30;61.40
49861;DHT22;35761;48.826;9.238;2022-09-12T04:36:50;13.30;61.50
49861;DHT22;35761;48.826;9.238;2022-09-12T04:39:18;13.30;61.60
49861;DHT22;35761;48.826;9.238;2022-09-12T04:41:48;13.20;61.40
49861;DHT22;35761;48.826;9.238;2022-09-12T04:44:16;13.20;61.70
49861;DHT22;35761;48.826;9.238;2022-09-12T04:46:46;13.20;62.00
49861;DHT22;35761;48.826;9.238;2022-09-12T04:49:14;13.20;61.80
49861;DHT22;35761;48.826;9.238;2022-09-12T04:51:45;13.20;61.50
49861;DHT22;35761;48.826;9.238;2022-09-12T04:54:15;13.20;61.30
49861;DHT22;35761;48.826;9.238;2022-09-12T04:56:46;13.10;60.50
49861;DHT22;35761;48.826;9.238;2022-09-12T04:59:19;13.10;61.00
49861;DHT22;35761;48.826;9.238;2022-09-12T05:01:48;13.10;61.70
49861;DHT22;35761;48.826;9.238;2022-09-12T05:04:17;13.10;62.10
49861;DHT22;35761;48.826;9.238;2022-09-12T05:06:46;13.10;62.00
49861;DHT22;35761;48.826;9.238;2022-09-12T05:09:14;13.10;62.30
49861;DHT22;35761;48.826;9.238;2022-09-12T05:11:43;13.00;62.20
49861;DHT22;35761;48.826;9.238;2022-09-12T05:14:32;13.00;61.60
49861;DHT22;35761;48.826;9.238;2022-09-12T05:17:01;13.00;61.50
49861;DHT22;35761;48.826;9.238;2022-09-12T05:19:32;13.00;62.10
49861;DHT22;35761;48.826;9.238;2022-09-12T05:22:00;12.90;62.30
49861;DHT22;35761;48.826;9.238;2022-09-12T05:24:28;12.90;62.70
49861;DHT22;35761;48.826;9.238;2022-09-12T05:26:57;12.90;62.80
49861;DHT22;35761;48.826;9.238;2022-09-12T05:29:25;12.90;62.90
49861;DHT22;35761;48.826;9.238;2022-09-12T05:31:55;12.90;63.00
49861;DHT22;35761;48.826;9.238;2022-09-12T05:34:23;12.90;62.80
49861;DHT22;35761;48.826;9.238;2022-09-12T05:36:53;12.90;63.30
49861;DHT22;35761;48.826;9.238;2022-09-12T05:39:21;12.90;62.50
49861;DHT22;35761;48.826;9.238;2022-09-12T05:41:50;12.90;62.70
49861;DHT22;35761;48.826;9.238;2022-09-12T05:44:18;12.90;63.00
49861;DHT22;35761;48.826;9.238;2022-09-12T05:46:47;12.90;63.20
49861;DHT22;35761;48.826;9.238;2022-09-12T05:49:18;12.90;62.80
49861;DHT22;35761;48.826;9.238;2022-09-12T05:51:47;13.00;62.50
49861;DHT22;35761;48.826;9.238;2022-09-12T05:54:17;12.90;62.30
49861;DHT22;35761;48.826;9.238;2022-09-12T05:56:47;12.90;62.10
49861;DHT22;35761;48.826;9.238;2022-09-12T05:59:17;12.90;62.20
49861;DHT22;35761;48.826;9.238;2022-09-12T06:01:47;12.90;62.30
49861;DHT22;35761;48.826;9.238;2022-09-12T06:04:17;12.90;62.50
49861;DHT22;35761;48.826;9.238;2022-09-12T06:06:45;12.90;62.70
49861;DHT22;35761;48.826;9.238;2022-09-12T06:09:15;12.90;63.00
49861;DHT22;35761;48.826;9.238;2022-09-12T06:11:45;12.90;63.70
49861;DHT22;35761;48.826;9.238;2022-09-12T06:14:15;12.90;64.50
49861;DHT22;35761;48.826;9.238;2022-09-12T06:16:45;12.90;65.00
49861;DHT22;35761;48.826;9.238;2022-09-12T06:19:16;12.90;65.20
49861;DHT22;35761;48.826;9.238;2022-09-12T06:21:48;12.90;65.20
49861;DHT22;35761;48.826;9.238;2022-09-12T06:24:18;12.90;65.30
49861;DHT22;35761;48.826;9.238;2022-09-12T06:26:49;12.90;65.50
49861;DHT22;35761;48.826;9.238;2022-09-12T06:29:18;12.90;65.80
49861;DHT22;35761;48.826;9.238;2022-09-12T06:31:47;12.90;66.10
49861;DHT22;35761;48.826;9.238;2022-09-12T06:34:15;13.00;66.90
49861;DHT22;35761;48.826;9.238;2022-09-12T06:36:46;13.00;66.70
49861;DHT22;35761;48.826;9.238;2022-09-12T06:39:16;13.00;67.40
49861;DHT22;35761;48.826;9.238;2022-09-12T06:41:46;13.00;68.10
49861;DHT22;35761;48.826;9.238;2022-09-12T06:44:17;13.00;68.80
49861;DHT22;35761;48.826;9.238;2022-09-12T06:46:46;13.10;69.70
49861;DHT22;35761;48.826;9.238;2022-09-12T06:49:15;13.10;69.80
49861;DHT22;35761;48.826;9.238;2022-09-12T06:51:45;13.10;69.00
49861;DHT22;35761;48.826;9.238;2022-09-12T06:54:15;13.20;69.00
49861;DHT22;35761;48.826;9.238;2022-09-12T06:56:43;13.20;70.10
49861;DHT22;35761;48.826;9.238;2022-09-12T06:59:12;13.20;70.20
49861;DHT22;35761;48.826;9.238;2022-09-12T07:01:40;13.30;69.90
49861;DHT22;35761;48.826;9.238;2022-09-12T07:04:09;13.30;69.70
49861;DHT22;35761;48.826;9.238;2022-09-12T07:06:40;13.40;69.80
49861;DHT22;35761;48.826;9.238;2022-09-12T07:09:13;13.40;69.20
49861;DHT22;35761;48.826;9.238;2022-09-12T07:11:43;13.40;68.20
49861;DHT22;35761;48.826;9.238;2022-09-12T07:14:13;13.50;68.30
49861;DHT22;35761;48.826;9.238;2022-09-12T07:16:42;13.50;68.10
49861;DHT22;35761;48.826;9.238;2022-09-12T07:19:11;13.50;68.50
49861;DHT22;35761;48.826;9.238;2022-09-12T07:21:39;13.50;68.50
49861;DHT22;35761;48.826;9.238;2022-09-12T07:24:08;13.60;67.60
49861;DHT22;35761;48.826;9.238;2022-09-12T07:26:39;13.60;68.20
49861;DHT22;35761;48.826;9.238;2022-09-12T07:29:13;13.60;68.50
49861;DHT22;35761;48.826;9.238;2022-09-12T07:32:03;13.60;69.10
49861;DHT22;35761;48.826;9.238;2022-09-12T07:34:33;13.70;68.90
49861;DHT22;35761;48.826;9.238;2022-09-12T07:37:01;13.80;67.00
49861;DHT22;35761;48.826;9.238;2022-09-12T07:39:30;13.90;65.80
49861;DHT22;35761;48.826;9.238;2022-09-12T07:42:00;13.90;65.10
49861;DHT22;35761;48.826;9.238;2022-09-12T07:44:29;14.00;64.60
49861;DHT22;35761;48.826;9.238;2022-09-12T07:46:57;14.00;65.70
49861;DHT22;35761;48.826;9.238;2022-09-12T07:49:25;14.00;64.80
49861;DHT22;35761;48.826;9.238;2022-09-12T07:51:54;14.00;64.80
49861;DHT22;35761;48.826;9.238;2022-09-12T07:54:22;14.00;65.90
49861;DHT22;35761;48.826;9.238;2022-09-12T07:56:50;14.10;66.50
49861;DHT22;35761;48.826;9.238;2022-09-12T07:59:20;14.10;67.80
49861;DHT22;35761;48.826;9.238;2022-09-12T08:02:12;14.10;67.20
49861;DHT22;35761;48.826;9.238;2022-09-12T08:04:45;14.20;65.80
49861;DHT22;35761;48.826;9.238;2022-09-12T08:07:14;14.20;66.20
49861;DHT22;35761;48.826;9.238;2022-09-12T08:09:44;14.30;66.50
49861;DHT22;35761;48.826;9.238;2022-09-12T08:12:13;14.20;65.20
49861;DHT22;35761;48.826;9.238;2022-09-12T08:14:43;14.30;65.10
49861;DHT22;35761;48.826;9.238;2022-09-12T08:17:12;14.40;66.00
49861;DHT22;35761;48.826;9.238;2022-09-12T08:19:40;14.40;64.10
49861;DHT22;35761;48.826;9.238;2022-09-12T08:22:09;14.40;63.00
49861;DHT22;35761;48.826;9.238;2022-09-12T08:24:38;14.50;64.10
49861;DHT22;35761;48.826;9.238;2022-09-12T08:27:06;14.50;64.50
49861;DHT22;35761;48.826;9.238;2022-09-12T08:29:35;14.60;64.50
49861;DHT22;35761;48.826;9.238;2022-09-12T08:32:05;14.60;65.30
49861;DHT22;35761;48.826;9.238;2022-09-12T08:34:33;14.60;65.90
49861;DHT22;35761;48.826;9.238;2022-09-12T08:37:01;14.70;66.60
49861;DHT22;35761;48.826;9.238;2022-09-12T08:39:30;14.80;65.70
49861;DHT22;35761;48.826;9.238;2022-09-12T08:42:01;14.80;65.70
49861;DHT22;35761;48.826;9.238;2022-09-12T08:44:39;14.90;66.10
49861;DHT22;35761;48.826;9.238;2022-09-12T08:47:19;15.00;62.30
49861;DHT22;35761;48.826;9.238;2022-09-12T08:49:55;15.20;61.50
49861;DHT22;35761;48.826;9.238;2022-09-12T08:52:30;15.30;61.10
49861;DHT22;35761;48.826;9.238;2022-09-12T08:55:04;15.30;62.80
49861;DHT22;35761;48.826;9.238;2022-09-12T08:57:51;15.30;63.60
49861;DHT22;35761;48.826;9.238;2022-09-12T09:00:20;15.40;63.30
49861;DHT22;35761;48.826;9.238;2022-09-12T09:06:29;15.50;62.80
49861;DHT22;35761;48.826;9.238;2022-09-12T09:09:12;15.50;63.20
49861;DHT22;35761;48.826;9.238;2022-09-12T09:11:56;15.50;61.70
49861;DHT22;35761;48.826;9.238;2022-09-12T09:14:41;15.60;60.40
49861;DHT22;35761;48.826;9.238;2022-09-12T09:17:21;15.60;60.30
49861;DHT22;35761;48.826;9.238;2022-09-12T09:19:58;15.70;59.30
49861;DHT22;35761;48.826;9.238;2022-09-12T09:22:39;15.80;59.30
49861;DHT22;35761;48.826;9.238;2022-09-12T09:25:15;15.90;56.80
49861;DHT22;35761;48.826;9.238;2022-09-12T09:27:55;16.00;56.20
49861;DHT22;35761;48.826;9.238;2022-09-12T09:30:25;16.00;56.90
49861;DHT22;35761;48.826;9.238;2022-09-12T09:32:57;16.10;57.20
49861;DHT22;35761;48.826;9.238;2022-09-12T09:35:38;16.20;55.30
49861;DHT22;35761;48.826;9.238;2022-09-12T09:38:23;16.20;56.50
49861;DHT22;35761;48.826;9.238;2022-09-12T09:43:55;16.30;56.40
49861;DHT22;35761;48.826;9.238;2022-09-12T09:46:24;16.40;55.60
49861;DHT22;35761;48.826;9.238;2022-09-12T09:48:54;16.40;54.80
49861;DHT22;35761;48.826;9.238;2022-09-12T09:51:31;16.40;54.70
49861;DHT22;35761;48.826;9.238;2022-09-12T09:54:08;16.50;54.30
49861;DHT22;35761;48.826;9.238;2022-09-12T09:56:41;16.60;54.90
49861;DHT22;35761;48.826;9.238;2022-09-12T09:59:10;16.60;55.30
49861;DHT22;35761;48.826;9.238;2022-09-12T10:01:44;16.70;55.90
49861;DHT22;35761;48.826;9.238;2022-09-12T10:04:18;16.80;53.20
49861;DHT22;35761;48.826;9.238;2022-09-12T10:06:52;16.90;52.90
49861;DHT22;35761;48.826;9.238;2022-09-12T10:09:23;16.90;53.00
49861;DHT22;35761;48.826;9.238;2022-09-12T10:11:54;17.00;51.90
49861;DHT22;35761;48.826;9.238;2022-09-12T10:14:35;17.10;50.60
49861;DHT22;35761;48.826;9.238;2022-09-12T10:17:26;17.10;50.70
49861;DHT22;35761;48.826;9.238;2022-09-12T10:20:01;17.20;50.30
49861;DHT22;35761;48.826;9.238;2022-09-12T10:22:48;17.30;49.60
49861;DHT22;35761;48.826;9.238;2022-09-12T10:25:18;17.30;47.90
49861;DHT22;35761;48.826;9.238;2022-09-12T10:27:52;17.40;48.80
49861;DHT22;35761;48.826;9.238;2022-09-12T10:30:23;17.50;48.30
49861;DHT22;35761;48.826;9.238;2022-09-12T10:32:58;17.60;46.80
49861;DHT22;35761;48.826;9.238;2022-09-12T10:35:42;17.70;48.30
49861;DHT22;35761;48.826;9.238;2022-09-12T10:38:19;17.80;46.70
49861;DHT22;35761;48.826;9.238;2022-09-12T10:40:56;17.90;46.10
49861;DHT22;35761;48.826;9.238;2022-09-12T10:43:28;18.00;47.20
49861;DHT22;35761;48.826;9.238;2022-09-12T10:46:21;18.10;45.80
49861;DHT22;35761;48.826;9.238;2022-09-12T10:49:11;18.20;44.20
49861;DHT22;35761;48.826;9.238;2022-09-12T10:51:41;18.20;42.90
49861;DHT22;35761;48.826;9.238;2022-09-12T10:54:11;18.30;43.30
49861;DHT22;35761;48.826;9.238;2022-09-12T10:56:54;18.30;43.30
49861;DHT22;35761;48.826;9.238;2022-09-12T10:59:30;18.40;43.70
49861;DHT22;35761;48.826;9.238;2022-09-12T11:02:12;18.40;40.60
49861;DHT22;35761;48.826;9.238;2022-09-12T11:04:52;18.50;40.40
49861;DHT22;35761;48.826;9.238;2022-09-12T11:07:36;18.60;40.20
49861;DHT22;35761;48.826;9.238;2022-09-12T11:10:23;18.60;39.80
49861;DHT22;35761;48.826;9.238;2022-09-12T11:13:16;18.70;39.90
49861;DHT22;35761;48.826;9.238;2022-09-12T11:16:12;18.80;40.10
49861;DHT22;35761;48.826;9.238;2022-09-12T11:19:04;18.90;39.20
49861;DHT22;35761;48.826;9.238;2022-09-12T11:21:59;18.90;40.20
49861;DHT22;35761;48.826;9.238;2022-09-12T11:25:03;19.00;36.60
49861;DHT22;35761;48.826;9.238;2022-09-12T11:28:10;19.00;37.50
49861;DHT22;35761;48.826;9.238;2022-09-12T11:30:55;19.10;37.30
49861;DHT22;35761;48.826;9.238;2022-09-12T11:33:40;19.10;37.80
49861;DHT22;35761;48.826;9.238;2022-09-12T11:36:20;19.20;39.10
49861;DHT22;35761;48.826;9.238;2022-09-12T11:39:01;19.30;38.20
49861;DHT22;35761;48.826;9.238;2022-09-12T11:41:35;19.30;37.50
49861;DHT22;35761;48.826;9.238;2022-09-12T11:44:13;19.40;38.30
49861;DHT22;35761;48.826;9.238;2022-09-12T11:46:44;19.50;38.00
49861;DHT22;35761;48.826;9.238;2022-09-12T11:49:27;19.60;38.40
49861;DHT22;35761;48.826;9.238;2022-09-12T11:52:05;19.70;36.70
49861;DHT22;35761;48.826;9.238;2022-09-12T11:54:41;20.00;36.20
49861;DHT22;35761;48.826;9.238;2022-09-12T11:57:23;20.20;35.80
49861;DHT22;35761;48.826;9.238;2022-09-12T11:59:58;20.40;35.70
49861;DHT22;35761;48.826;9.238;2022-09-12T12:02:36;20.60;34.30
49861;DHT22;35761;48.826;9.238;2022-09-12T12:05:18;20.70;33.90
49861;DHT22;35761;48.826;9.238;2022-09-12T12:07:52;20.80;32.30
49861;DHT22;35761;48.826;9.238;2022-09-12T12:10:31;20.90;33.00
49861;DHT22;35761;48.826;9.238;2022-09-12T12:13:03;21.10;27.20
49861;DHT22;35761;48.826;9.238;2022-09-12T12:15:46;21.20;26.40
49861;DHT22;35761;48.826;9.238;2022-09-12T12:18:18;21.50;24.80
49861;DHT22;35761;48.826;9.238;2022-09-12T12:20:54;21.70;24.10
49861;DHT22;35761;48.826;9.238;2022-09-12T12:23:30;22.00;22.50
49861;DHT22;35761;48.826;9.238;2022-09-12T12:26:03;22.10;23.40
49861;DHT22;35761;48.826;9.238;2022-09-12T12:29:01;22.20;22.10
49861;DHT22;35761;48.826;9.238;2022-09-12T12:34:50;22.60;21.70
49861;DHT22;35761;48.826;9.238;2022-09-12T12:37:50;22.60;22.20
49861;DHT22;35761;48.826;9.238;2022-09-12T12:40:26;22.80;21.70
49861;DHT22;35761;48.826;9.238;2022-09-12T12:43:03;23.00;20.80
49861;DHT22;35761;48.826;9.238;2022-09-12T12:46:10;23.20;21.20
49861;DHT22;35761;48.826;9.238;2022-09-12T12:49:04;23.40;19.30
49861;DHT22;35761;48.826;9.238;2022-09-12T12:51:55;23.60;20.60
49861;DHT22;35761;48.826;9.238;2022-09-12T12:54:30;23.70;21.20
49861;DHT22;35761;48.826;9.238;2022-09-12T12:57:04;23.80;18.30
49861;DHT22;35761;48.826;9.238;2022-09-12T12:59:50;24.00;18.70
49861;DHT22;35761;48.826;9.238;2022-09-12T13:02:25;24.10;19.50
49861;DHT22;35761;48.826;9.238;2022-09-12T13:05:01;24.20;18.70
49861;DHT22;35761;48.826;9.238;2022-09-12T13:07:35;24.40;17.10
49861;DHT22;35761;48.826;9.238;2022-09-12T13:10:07;24.40;17.30
49861;DHT22;35761;48.826;9.238;2022-09-12T13:12:44;24.60;18.00
49861;DHT22;35761;48.826;9.238;2022-09-12T13:15:46;24.80;17.80
49861;DHT22;35761;48.826;9.238;2022-09-12T13:18:22;25.00;16.40
49861;DHT22;35761;48.826;9.238;2022-09-12T13:21:08;25.00;16.30
49861;DHT22;35761;48.826;9.238;2022-09-12T13:23:37;25.20;15.70
49861;DHT22;35761;48.826;9.238;2022-09-12T13:26:11;25.40;15.20
49861;DHT22;35761;48.826;9.238;2022-09-12T13:28:41;25.50;14.70
49861;DHT22;35761;48.826;9.238;2022-09-12T13:31:15;25.60;14.40
49861;DHT22;35761;48.826;9.238;2022-09-12T13:33:49;25.80;14.30
49861;DHT22;35761;48.826;9.238;2022-09-12T13:39:45;26.40;15.70
49861;DHT22;35761;48.826;9.238;2022-09-12T13:42:37;26.70;14.70
49861;DHT22;35761;48.826;9.238;2022-09-12T13:45:13;26.90;14.90
49861;DHT22;35761;48.826;9.238;2022-09-12T13:47:44;27.20;14.50
49861;DHT22;35761;48.826;9.238;2022-09-12T13:50:16;27.40;13.70
49861;DHT22;35761;48.826;9.238;2022-09-12T13:52:49;27.60;13.80
49861;DHT22;35761;48.826;9.238;2022-09-12T13:55:30;27.70;13.10
49861;DHT22;35761;48.826;9.238;2022-09-12T13:58:02;27.90;12.10
49861;DHT22;35761;48.826;9.238;2022-09-12T14:00:32;28.00;12.30
49861;DHT22;35761;48.826;9.238;2022-09-12T14:03:23;28.00;11.80
49861;DHT22;35761;48.826;9.238;2022-09-12T14:06:11;28.10;11.60
49861;DHT22;35761;48.826;9.238;2022-09-12T14:08:42;28.30;12.20
49861;DHT22;35761;48.826;9.238;2022-09-12T14:11:11;28.50;10.90
49861;DHT22;35761;48.826;9.238;2022-09-12T14:13:47;28.60;11.20
49861;DHT22;35761;48.826;9.238;2022-09-12T14:16:17;28.90;11.70
49861;DHT22;35761;48.826;9.238;2022-09-12T14:18:47;29.00;11.50
49861;DHT22;35761;48.826;9.238;2022-09-12T14:21:32;29.30;12.50
49861;DHT22;35761;48.826;9.238;2022-09-12T14:24:05;29.10;11.90
49861;DHT22;35761;48.826;9.238;2022-09-12T14:26:35;29.10;11.30
49861;DHT22;35761;48.826;9.238;2022-09-12T14:29:07;29.20;11.10
49861;DHT22;35761;48.826;9.238;2022-09-12T14:31:36;29.40;10.60
49861;DHT22;35761;48.826;9.238;2022-09-12T14:34:09;29.50;11.40
49861;DHT22;35761;48.826;9.238;2022-09-12T14:36:43;29.70;16.40
49861;DHT22;35761;48.826;9.238;2022-09-12T14:39:25;29.90;9.90
49861;DHT22;35761;48.826;9.238;2022-09-12T14:42:02;30.00;10.60
49861;DHT22;35761;48.826;9.238;2022-09-12T14:44:33;30.00;9.50
49861;DHT22;35761;48.826;9.238;2022-09-12T14:47:12;30.10;9.60
49861;DHT22;35761;48.826;9.238;2022-09-12T14:49:41;30.20;9.10
49861;DHT22;35761;48.826;9.238;2022-09-12T14:52:23;30.30;9.80
49861;DHT22;35761;48.826;9.238;2022-09-12T14:54:59;30.50;9.10
49861;DHT22;35761;48.826;9.238;2022-09-12T14:57:33;30.70;9.10
49861;DHT22;35761;48.826;9.238;2022-09-12T15:00:17;30.90;9.30
49861;DHT22;35761;48.826;9.238;2022-09-12T15:02:47;31.10;9.50
49861;DHT22;35761;48.826;9.238;2022-09-12T15:05:19;30.80;9.10
49861;DHT22;35761;48.826;9.238;2022-09-12T15:07:55;31.00;9.80
49861;DHT22;35761;48.826;9.238;2022-09-12T15:10:28;31.30;9.50
49861;DHT22;35761;48.826;9.238;2022-09-12T15:13:16;31.60;9.20
49861;DHT22;35761;48.826;9.238;2022-09-12T15:15:48;31.90;8.90
49861;DHT22;35761;48.826;9.238;2022-09-12T15:18:18;32.10;9.30
49861;DHT22;35761;48.826;9.238;2022-09-12T15:20:51;32.20;9.10
49861;DHT22;35761;48.826;9.238;2022-09-12T15:23:33;32.40;8.70
49861;DHT22;35761;48.826;9.238;2022-09-12T15:26:10;32.50;9.00
49861;DHT22;35761;48.826;9.238;2022-09-12T15:28:43;32.70;9.50
49861;DHT22;35761;48.826;9.238;2022-09-12T15:31:17;32.70;8.90
49861;DHT22;35761;48.826;9.238;2022-09-12T15:33:50;32.70;8.40
49861;DHT22;35761;48.826;9.238;2022-09-12T15:36:20;32.90;8.10
49861;DHT22;35761;48.826;9.238;2022-09-12T15:38:52;32.90;8.10
49861;DHT22;35761;48.826;9.238;2022-09-12T15:41:25;33.00;8.60
49861;DHT22;35761;48.826;9.238;2022-09-12T15:43:58;33.00;8.30
49861;DHT22;35761;48.826;9.238;2022-09-12T15:46:27;33.10;8.70
49861;DHT22;35761;48.826;9.238;2022-09-12T15:48:55;33.20;8.40
49861;DHT22;35761;48.826;9.238;2022-09-12T15:51:24;33.30;8.70
49861;DHT22;35761;48.826;9.238;2022-09-12T15:53:52;33.40;8.60
49861;DHT22;35761;48.826;9.238;2022-09-12T15:56:23;33.60;8.10
49861;DHT22;35761;48.826;9.238;2022-09-12T15:58:54;33.60;7.90
49861;DHT22;35761;48.826;9.238;2022-09-12T16:01:31;33.70;8.10
49861;DHT22;35761;48.826;9.238;2022-09-12T16:04:18;33.70;8.10
49861;DHT22;35761;48.826;9.238;2022-09-12T16:06:49;33.70;8.00
49861;DHT22;35761;48.826;9.238;2022-09-12T16:09:19;33.70;8.20
49861;DHT22;35761;48.826;9.238;2022-09-12T16:11:52;33.60;8.60
49861;DHT22;35761;48.826;9.238;2022-09-12T16:14:20;33.50;8.70
49861;DHT22;35761;48.826;9.238;2022-09-12T16:16:53;33.50;8.60
49861;DHT22;35761;48.826;9.238;2022-09-12T16:19:23;33.40;8.60
49861;DHT22;35761;48.826;9.238;2022-09-12T16:21:51;33.20;8.80
49861;DHT22;35761;48.826;9.238;2022-09-12T16:24:20;33.20;8.60
49861;DHT22;35761;48.826;9.238;2022-09-12T16:26:53;33.40;8.70
49861;DHT22;35761;48.826;9.238;2022-09-12T16:29:26;33.40;9.10
49861;DHT22;35761;48.826;9.238;2022-09-12T16:31:55;33.50;8.70
49861;DHT22;35761;48.826;9.238;2022-09-12T16:34:24;33.40;9.10
49861;DHT22;35761;48.826;9.238;2022-09-12T16:36:52;33.40;8.80